Time;durP1;ratioP1;P1;durP2;ratioP2;P2;SDS_P1;SDS_P2;PMS_P1;PMS_P2;Temp;Humidity;BMP_temperature;BMP_pressure;BME280_temperature;BME280_humidity;BME280_pressure;Samples;Min_cycle;Max_cycle;Signal;HPM_P1;HPM_P2
2022/04/16 00:01:42;;;;;;;14.98;7.40;;;;;;;9.39;67.36;94945.81;5088710;28;20032;-43
2022/04/16 00:04:10;;;;;;;13.55;7.05;;;;;;;9.36;67.78;94949.66;5088334;28;20040;-43
2022/04/16 00:06:37;;;;;;;11.82;6.85;;;;;;;9.20;68.22;94937.28;5088030;28;20521;-42
2022/04/16 00:09:04;;;;;;;12.65;6.45;;;;;;;9.14;68.46;94944.13;5087566;28;20044;-44
2022/04/16 00:11:31;;;;;;;10.30;5.30;;;;;;;9.02;68.46;94950.28;5088859;28;20047;-45
2022/04/16 00:13:58;;;;;;;16.23;5.30;;;;;;;8.90;67.23;94953.63;5088058;28;20036;-43
2022/04/16 00:16:25;;;;;;;7.85;5.20;;;;;;;8.71;67.84;94936.44;5090776;28;20227;-43
2022/04/16 00:18:54;;;;;;;14.32;6.22;;;;;;;8.66;68.75;94946.66;5088626;28;20043;-43
2022/04/16 00:21:22;;;;;;;12.20;7.05;;;;;;;8.61;68.80;94955.91;5088718;28;20044;-43
2022/04/16 00:23:50;;;;;;;13.27;7.00;;;;;;;8.60;68.87;94954.31;5089343;28;20139;-42
2022/04/16 00:26:16;;;;;;;12.35;5.93;;;;;;;8.61;69.36;94945.53;5088657;28;20043;-44
2022/04/16 00:28:43;;;;;;;10.80;6.10;;;;;;;8.67;68.94;94954.25;5089289;28;20409;-46
2022/04/16 00:31:11;;;;;;;12.25;6.47;;;;;;;8.61;69.27;94955.91;5085609;28;20045;-43
2022/04/16 00:33:37;;;;;;;10.50;5.80;;;;;;;8.60;69.53;94949.13;5087442;28;20402;-47
2022/04/16 00:36:04;;;;;;;14.38;5.53;;;;;;;8.61;69.42;94948.13;5088597;28;20101;-46
2022/04/16 00:38:31;;;;;;;9.70;6.05;;;;;;;8.60;69.77;94937.94;5089234;28;20470;-47
2022/04/16 00:41:00;;;;;;;19.35;6.00;;;;;;;8.56;69.49;94932.38;5088811;28;20047;-43
2022/04/16 00:43:28;;;;;;;7.57;5.07;;;;;;;8.54;69.95;94934.41;5089112;28;20485;-44
2022/04/16 00:45:56;;;;;;;8.80;5.60;;;;;;;8.53;70.19;94943.19;5087831;28;20101;-44
2022/04/16 00:48:23;;;;;;;12.10;5.60;;;;;;;8.52;70.13;94940.84;5088655;28;20492;-45
2022/04/16 00:50:52;;;;;;;7.68;5.28;;;;;;;8.49;69.85;94926.47;5087273;28;20040;-46
2022/04/16 00:53:20;;;;;;;8.20;5.47;;;;;;;8.50;69.94;94932.44;5086858;28;20055;-46
2022/04/16 00:55:46;;;;;;;10.50;5.60;;;;;;;8.48;70.20;94935.28;5092615;28;20049;-42
2022/04/16 00:58:14;;;;;;;14.50;5.72;;;;;;;8.48;69.79;94924.91;5088714;28;20101;-44
2022/04/16 01:00:40;;;;;;;13.88;6.25;;;;;;;8.35;70.51;94930.16;5089660;28;20086;-45
2022/04/16 01:03:08;;;;;;;11.35;5.65;;;;;;;8.30;70.61;94933.41;5089272;28;20172;-42
2022/04/16 01:05:37;;;;;;;11.80;6.18;;;;;;;8.23;71.29;94923.09;5088647;28;20044;-44
2022/04/16 01:08:04;;;;;;;13.73;5.70;;;;;;;8.10;72.22;94925.78;5090509;28;20134;-45
2022/04/16 01:10:33;;;;;;;10.95;6.20;;;;;;;8.03;72.26;94922.44;5087492;28;20040;-44
2022/04/16 01:13:03;;;;;;;16.70;5.95;;;;;;;7.87;70.24;94928.16;5088076;28;20047;-47
2022/04/16 01:15:30;;;;;;;13.45;6.32;;;;;;;7.76;70.26;94922.69;5088656;28;20047;-44
2022/04/16 01:18:02;;;;;;;9.88;5.88;;;;;;;7.65;70.52;94920.75;5089312;28;20051;-42
2022/04/16 01:20:36;;;;;;;12.30;7.10;;;;;;;7.66;71.35;94914.56;5087713;28;20047;-43
2022/04/16 01:23:04;;;;;;;10.68;5.70;;;;;;;7.53;71.88;94907.69;5088132;28;20044;-43
2022/04/16 01:25:33;;;;;;;12.50;6.50;;;;;;;7.51;72.40;94919.25;5087705;28;20056;-43
2022/04/16 01:28:01;;;;;;;17.20;6.25;;;;;;;7.44;72.95;94914.91;5087719;28;20051;-45
2022/04/16 01:30:29;;;;;;;17.33;7.78;;;;;;;7.45;73.08;94921.69;5090011;28;20077;-43
2022/04/16 01:32:56;;;;;;;13.75;6.65;;;;;;;7.40;73.29;94913.75;5086928;28;20044;-46
2022/04/16 01:35:23;;;;;;;13.40;7.10;;;;;;;7.43;73.45;94912.53;5088095;28;20057;-43
2022/04/16 01:37:50;;;;;;;13.15;7.53;;;;;;;7.45;73.88;94911.31;5089956;28;20048;-45
2022/04/16 01:40:17;;;;;;;12.77;7.43;;;;;;;7.47;73.43;94924.88;5088952;28;20044;-43
2022/04/16 01:42:45;;;;;;;12.18;6.78;;;;;;;7.36;73.39;94907.38;5087820;28;20069;-43
2022/04/16 01:45:18;;;;;;;14.52;6.70;;;;;;;7.33;73.86;94917.34;5066377;28;20072;-47
2022/04/16 01:47:45;;;;;;;15.23;6.45;;;;;;;7.32;73.97;94921.75;5087477;28;20401;-46
2022/04/16 01:50:12;;;;;;;15.68;5.63;;;;;;;7.30;73.67;94926.34;5090964;28;20097;-45
2022/04/16 01:52:41;;;;;;;10.50;6.53;;;;;;;7.30;74.92;94918.56;5087916;28;20036;-46
2022/04/16 01:55:09;;;;;;;11.85;6.68;;;;;;;7.17;77.26;94922.03;5092243;28;20126;-44
2022/04/16 01:57:37;;;;;;;15.43;7.38;;;;;;;7.21;77.78;94920.59;5092269;28;20052;-44
2022/04/16 02:00:10;;;;;;;16.50;7.45;;;;;;;7.27;77.67;94918.97;5092287;28;20050;-44
2022/04/16 02:02:37;;;;;;;16.25;7.78;;;;;;;7.28;77.57;94925.75;5091610;28;20051;-43
2022/04/16 02:05:08;;;;;;;13.23;7.20;;;;;;;7.12;78.10;94900.34;5092062;28;20040;-45
2022/04/16 02:07:35;;;;;;;14.20;8.13;;;;;;;7.17;78.47;94924.63;5092295;28;20105;-46
2022/04/16 02:10:03;;;;;;;14.70;7.57;;;;;;;7.10;78.80;94917.91;5091348;28;20866;-47
2022/04/16 02:12:29;;;;;;;16.95;7.65;;;;;;;7.18;78.60;94930.59;5091506;28;20046;-43
2022/04/16 02:14:56;;;;;;;11.80;7.35;;;;;;;7.19;78.41;94932.19;5091945;28;20406;-43
2022/04/16 02:17:23;;;;;;;14.77;8.45;;;;;;;7.19;78.10;94929.59;5091273;28;20044;-45
2022/04/16 02:19:50;;;;;;;23.25;9.20;;;;;;;7.15;77.88;94931.00;5091495;28;20589;-44
2022/04/16 02:22:17;;;;;;;24.25;8.48;;;;;;;7.13;78.60;94930.41;5092327;28;20414;-45
2022/04/16 02:24:46;;;;;;;18.75;9.65;;;;;;;7.08;78.73;94937.00;5091122;28;20039;-43
2022/04/16 02:27:13;;;;;;;15.65;9.20;;;;;;;7.06;78.79;94933.84;5092337;28;20048;-45
2022/04/16 02:29:41;;;;;;;12.68;8.00;;;;;;;6.96;78.82;94932.69;5089817;28;20043;-45
2022/04/16 02:32:08;;;;;;;15.73;7.88;;;;;;;6.75;79.24;94931.94;5091112;28;20031;-42
2022/04/16 02:34:35;;;;;;;17.50;8.38;;;;;;;6.65;79.52;94927.22;5090115;28;20124;-44
2022/04/16 02:37:02;;;;;;;12.48;7.75;;;;;;;6.54;79.79;94922.66;5092024;28;20047;-44
2022/04/16 02:39:28;;;;;;;12.90;7.55;;;;;;;6.41;80.26;94914.91;5090946;28;20485;-46
2022/04/16 02:41:55;;;;;;;17.30;7.65;;;;;;;6.31;80.64;94926.47;5091246;28;20073;-43
2022/04/16 02:47:12;;;;;;;14.63;7.00;;;;;;;6.28;80.65;94937.25;5090720;28;20039;-44
2022/04/16 02:49:39;;;;;;;16.20;7.63;;;;;;;6.08;81.80;94931.28;5094365;28;20047;-47
2022/04/16 02:52:07;;;;;;;22.20;9.15;;;;;;;5.97;82.49;94918.97;5090364;28;20521;-45
2022/04/16 02:54:35;;;;;;;15.18;8.23;;;;;;;5.96;83.02;94927.69;5090968;28;20048;-44
2022/04/16 02:57:03;;;;;;;15.07;7.78;;;;;;;5.86;83.46;94928.88;5090930;28;20046;-43
2022/04/16 02:59:35;;;;;;;13.40;7.88;;;;;;;5.83;84.49;94929.25;5090860;28;20047;-43
2022/04/16 03:02:03;;;;;;;16.55;7.95;;;;;;;5.85;84.97;94929.88;5089675;28;20040;-43
2022/04/16 03:04:30;;;;;;;15.35;9.00;;;;;;;5.85;85.37;94932.47;5088154;28;20054;-44
2022/04/16 03:06:57;;;;;;;15.63;8.90;;;;;;;5.82;85.34;94938.03;5087938;28;20241;-47
2022/04/16 03:09:24;;;;;;;14.63;8.50;;;;;;;5.78;85.48;94942.00;5094028;28;20038;-43
2022/04/16 03:11:51;;;;;;;23.15;8.93;;;;;;;5.69;85.16;94943.16;5090253;28;20467;-49
2022/04/16 03:19:48;;;;;;;23.85;9.30;;;;;;;5.58;88.25;94946.34;5090721;28;20783;-45
2022/04/16 03:22:15;;;;;;;22.67;10.32;;;;;;;5.48;88.71;94946.72;5090509;28;20032;-43
2022/04/16 03:24:42;;;;;;;25.60;10.60;;;;;;;5.49;89.72;94943.94;5089583;28;20513;-46
2022/04/16 03:27:09;;;;;;;26.60;11.18;;;;;;;5.47;90.41;94951.06;5089639;28;20040;-47
2022/04/16 03:29:37;;;;;;;18.52;9.95;;;;;;;5.38;90.61;94941.91;5092132;28;20031;-46
2022/04/16 03:32:04;;;;;;;18.75;9.20;;;;;;;5.40;90.84;94945.09;5090083;28;20048;-47
2022/04/16 03:34:31;;;;;;;15.68;8.63;;;;;;;5.35;91.10;94942.34;5089940;28;20468;-49
2022/04/16 03:36:58;;;;;;;16.65;8.75;;;;;;;5.29;91.65;94943.88;5091130;28;20039;-44
2022/04/16 03:39:25;;;;;;;14.18;7.82;;;;;;;5.34;91.31;94945.91;5089625;28;20047;-45
2022/04/16 03:41:52;;;;;;;15.60;8.02;;;;;;;5.39;90.78;94947.91;5090198;28;20031;-43
2022/04/16 03:44:19;;;;;;;15.15;7.10;;;;;;;5.42;90.71;94942.31;5089776;28;20443;-45
2022/04/16 03:46:46;;;;;;;16.92;7.00;;;;;;;5.45;90.77;94944.53;5089686;28;20862;-45
2022/04/16 03:49:13;;;;;;;19.45;8.82;;;;;;;5.48;91.82;94951.91;5088886;28;20043;-43
2022/04/16 03:51:40;;;;;;;17.92;8.10;;;;;;;5.57;91.11;94962.84;5089039;28;20044;-48
2022/04/16 04:02:23;;;;;;;14.15;8.23;;;;;;;5.71;89.39;94974.78;5089169;28;20043;-43
2022/04/16 04:04:50;;;;;;;17.00;9.73;;;;;;;5.73;89.44;94965.84;5091643;28;20049;-45
2022/04/16 04:07:17;;;;;;;22.08;11.60;;;;;;;5.79;89.07;94974.59;5089050;28;20554;-44
2022/04/16 04:09:45;;;;;;;21.38;9.55;;;;;;;5.89;88.02;94985.34;5089201;28;20042;-47
2022/04/16 04:12:12;;;;;;;29.08;14.52;;;;;;;5.92;88.09;94997.88;5087757;28;20044;-48
2022/04/16 04:14:41;;;;;;;43.33;17.63;;;;;;;6.04;88.08;94997.31;5087156;28;20076;-46
2022/04/16 04:17:08;;;;;;;40.58;18.23;;;;;;;6.13;88.72;94990.97;5087542;28;20059;-46
2022/04/16 04:19:36;;;;;;;51.45;18.58;;;;;;;6.28;88.82;95009.69;5090887;28;20432;-47
2022/04/16 04:22:04;;;;;;;31.95;13.80;;;;;;;6.34;88.42;95007.25;5091961;28;20064;-45
2022/04/16 04:24:31;;;;;;;32.17;14.02;;;;;;;6.43;87.53;95006.88;5089646;28;20050;-46
2022/04/16 04:26:59;;;;;;;24.33;10.40;;;;;;;6.42;87.48;94999.31;5088930;28;20050;-46
2022/04/16 04:29:29;;;;;;;19.85;9.50;;;;;;;6.44;86.51;94997.31;5088895;28;20036;-45
2022/04/16 04:31:56;;;;;;;18.60;8.80;;;;;;;6.53;86.31;95000.50;5087234;28;20044;-44
2022/04/16 04:34:23;;;;;;;19.88;8.93;;;;;;;6.58;84.87;95009.25;5088690;28;20044;-49
2022/04/16 04:36:50;;;;;;;17.23;7.53;;;;;;;6.62;84.26;95015.59;5094927;28;20429;-44
2022/04/16 04:39:23;;;;;;;15.00;7.57;;;;;;;6.58;83.99;95004.06;5088868;28;20036;-44
2022/04/16 04:41:49;;;;;;;16.73;7.40;;;;;;;6.70;83.72;95002.47;5089417;28;20059;-46
2022/04/16 04:44:16;;;;;;;19.48;8.52;;;;;;;6.73;83.98;95000.47;5088666;28;20051;-46
2022/04/16 04:46:48;;;;;;;17.20;8.10;;;;;;;6.85;83.74;94994.44;5091070;28;20044;-43
2022/04/16 04:49:15;;;;;;;18.48;9.43;;;;;;;6.98;83.34;95001.38;5089663;28;20044;-47
2022/04/16 04:51:42;;;;;;;20.30;9.80;;;;;;;7.12;82.83;95003.94;5089183;28;20047;-46
2022/04/16 04:54:09;;;;;;;17.42;10.07;;;;;;;7.25;82.26;95011.66;5090751;28;20047;-44
2022/04/16 04:56:36;;;;;;;19.48;10.30;;;;;;;7.39;81.50;95020.97;5086495;28;20055;-42
2022/04/16 04:59:03;;;;;;;23.27;12.05;;;;;;;7.39;80.65;95020.97;5089655;28;20050;-49
2022/04/16 05:01:30;;;;;;;28.58;14.70;;;;;;;7.42;81.04;95020.56;5086756;28;20051;-46
2022/04/16 05:03:57;;;;;;;24.30;12.32;;;;;;;7.56;79.81;95016.13;5069936;28;20050;-46
2022/04/16 05:06:24;;;;;;;24.50;12.60;;;;;;;7.67;79.70;95012.09;5092323;28;20489;-45
2022/04/16 05:08:51;;;;;;;20.80;10.23;;;;;;;7.60;79.02;94998.38;5089569;28;20051;-47
2022/04/16 05:11:18;;;;;;;15.40;8.88;;;;;;;7.70;79.37;95010.88;5087642;28;20039;-45
2022/04/16 05:13:45;;;;;;;24.40;10.85;;;;;;;7.83;79.42;95001.22;5086152;28;20097;-45
2022/04/16 05:16:15;;;;;;;20.25;10.43;;;;;;;7.96;78.60;95007.31;5089989;28;20501;-45
2022/04/16 05:18:41;;;;;;;13.77;8.60;;;;;;;8.05;77.80;94998.28;5088849;28;20565;-45
2022/04/16 05:21:08;;;;;;;12.00;8.05;;;;;;;8.21;77.20;95002.94;5089095;28;20502;-48
2022/04/16 05:23:39;;;;;;;14.23;8.75;;;;;;;8.20;76.34;94985.78;5087042;28;20040;-47
2022/04/16 05:26:08;;;;;;;16.17;7.72;;;;;;;8.31;75.94;95001.69;5086822;28;20059;-47
2022/04/16 05:28:37;;;;;;;18.48;7.45;;;;;;;8.41;74.98;94991.63;5087576;28;21064;-45
2022/04/16 05:31:07;;;;;;;22.98;8.13;;;;;;;8.59;74.98;94999.47;5067354;28;20920;-43
2022/04/16 05:36:20;;;;;;;11.95;6.70;;;;;;;8.97;74.92;94995.91;5086909;28;20047;-44
2022/04/16 05:38:46;;;;;;;9.55;6.68;;;;;;;8.96;74.50;94978.72;5086232;28;20047;-43
2022/04/16 05:41:13;;;;;;;10.57;6.63;;;;;;;9.15;73.62;94992.50;5091893;28;20062;-42
2022/04/16 05:43:40;;;;;;;13.00;7.28;;;;;;;9.21;73.28;94998.63;5089543;28;20116;-43
2022/04/16 05:46:07;;;;;;;10.80;7.35;;;;;;;9.44;72.96;95004.97;5090604;28;20044;-42
2022/04/16 05:48:34;;;;;;;13.30;7.35;;;;;;;9.61;72.60;95005.94;5091924;28;20044;-43
2022/04/16 05:51:01;;;;;;;13.60;6.50;;;;;;;9.71;71.58;95008.03;5090986;28;20056;-41
2022/04/16 05:53:29;;;;;;;14.70;7.20;;;;;;;9.85;72.03;95011.22;5089400;28;20040;-44
2022/04/16 05:55:57;;;;;;;11.10;5.97;;;;;;;9.75;72.83;95007.34;5087718;28;20040;-43
2022/04/16 05:58:24;;;;;;;14.20;7.07;;;;;;;9.73;71.47;94998.97;5087406;28;20044;-42
2022/04/16 06:00:50;;;;;;;12.50;5.82;;;;;;;9.82;70.69;94996.84;5086254;28;20470;-44
2022/04/16 06:03:19;;;;;;;7.80;5.53;;;;;;;9.98;69.21;95000.63;5087550;28;20040;-47
2022/04/16 06:05:46;;;;;;;10.68;6.40;;;;;;;10.11;67.16;95000.44;5088956;28;20051;-43
2022/04/16 06:08:13;;;;;;;14.75;6.85;;;;;;;10.31;66.26;94996.75;5089353;28;20052;-43
2022/04/16 06:10:40;;;;;;;14.57;6.30;;;;;;;10.32;64.52;95000.97;5089148;28;20116;-44
2022/04/16 06:13:11;;;;;;;14.25;6.78;;;;;;;10.36;63.24;95002.09;5088984;28;20093;-42
2022/04/16 06:15:41;;;;;;;11.02;6.50;;;;;;;10.54;61.82;95008.22;5087441;28;20472;-44
2022/04/16 06:18:12;;;;;;;9.98;5.38;;;;;;;10.74;61.75;95006.06;5090004;28;20048;-42
2022/04/16 06:20:39;;;;;;;11.13;6.43;;;;;;;10.81;60.27;94998.16;5086367;28;20051;-44
2022/04/16 06:23:06;;;;;;;20.42;5.60;;;;;;;11.02;59.65;94999.34;5086295;28;20507;-45
2022/04/16 06:25:34;;;;;;;11.40;5.72;;;;;;;11.03;58.32;94980.09;5087868;28;20569;-46
2022/04/16 06:28:02;;;;;;;7.47;4.78;;;;;;;11.15;56.91;94993.13;5088437;28;20040;-43
2022/04/16 06:30:29;;;;;;;10.57;4.90;;;;;;;11.19;57.24;95002.84;5083656;28;20060;-43
2022/04/16 06:32:55;;;;;;;12.32;5.50;;;;;;;11.34;55.96;95004.16;5086083;28;20089;-50
2022/04/16 06:35:22;;;;;;;16.02;7.00;;;;;;;11.35;57.46;95008.38;5087734;28;20144;-45
2022/04/16 06:37:49;;;;;;;19.30;6.32;;;;;;;11.51;56.50;95006.88;5084747;28;20044;-44
2022/04/16 06:40:16;;;;;;;17.38;5.90;;;;;;;11.63;55.75;95004.97;5088617;28;20042;-46
2022/04/16 06:42:43;;;;;;;11.90;6.43;;;;;;;11.75;56.03;95002.34;5090252;28;20044;-46
2022/04/16 06:45:11;;;;;;;9.82;5.20;;;;;;;11.81;55.48;94998.78;5094030;28;20054;-49
2022/04/16 06:47:39;;;;;;;16.77;7.10;;;;;;;11.75;56.86;95003.13;5090515;28;20060;-44
2022/04/16 06:50:08;;;;;;;10.13;6.60;;;;;;;11.89;56.71;94990.59;5085309;28;20055;-44
2022/04/16 06:52:34;;;;;;;13.20;6.05;;;;;;;12.02;55.76;94992.91;5089109;28;20113;-43
2022/04/16 06:55:02;;;;;;;13.52;6.53;;;;;;;12.19;53.98;94992.94;5091578;28;20060;-44
2022/04/16 06:57:29;;;;;;;16.95;7.53;;;;;;;12.40;53.40;94996.66;5091419;28;20040;-44
2022/04/16 07:00:04;;;;;;;10.77;5.55;;;;;;;12.53;50.23;94992.16;5092255;28;20070;-44
2022/04/16 07:02:30;;;;;;;17.33;6.45;;;;;;;12.72;50.36;94993.47;5091505;28;20048;-44
2022/04/16 07:04:58;;;;;;;17.25;7.00;;;;;;;12.87;49.98;94986.88;5091269;28;20429;-44
2022/04/16 07:07:24;;;;;;;9.43;5.88;;;;;;;13.04;48.65;94981.63;5089941;28;20040;-44
2022/04/16 07:09:51;;;;;;;12.63;6.63;;;;;;;13.24;48.88;94973.25;5088399;28;20114;-46
2022/04/16 07:12:18;;;;;;;16.75;7.15;;;;;;;13.31;48.88;94976.50;5086109;28;20065;-44
2022/04/16 07:14:45;;;;;;;13.77;5.75;;;;;;;13.52;48.23;94983.53;5087500;28;20505;-49
2022/04/16 07:17:18;;;;;;;14.23;6.22;;;;;;;13.78;47.98;94975.94;5089316;28;20108;-48
2022/04/16 07:19:45;;;;;;;10.63;6.05;;;;;;;14.08;48.41;94979.88;5087088;28;20056;-44
2022/04/16 07:22:12;;;;;;;10.90;5.80;;;;;;;14.46;47.08;94972.84;5092323;28;20083;-45
2022/04/16 07:24:41;;;;;;;16.17;5.78;;;;;;;14.63;45.05;94981.38;5086666;28;20177;-46
2022/04/16 07:27:08;;;;;;;9.32;5.85;;;;;;;14.89;43.88;94973.66;5087474;28;20047;-49
2022/04/16 07:29:35;;;;;;;19.63;5.78;;;;;;;15.00;44.13;94980.53;5089362;28;20036;-44
2022/04/16 07:32:02;;;;;;;19.25;5.82;;;;;;;15.06;44.56;94978.75;5086147;28;20079;-45
2022/04/16 07:34:29;;;;;;;8.35;5.20;;;;;;;15.18;44.08;94971.44;5066478;28;20142;-45
2022/04/16 07:36:56;;;;;;;14.43;8.57;;;;;;;15.43;43.24;94976.00;5091409;28;21198;-45
2022/04/16 07:39:22;;;;;;;12.68;6.82;;;;;;;15.44;42.75;94977.56;5091087;28;20039;-46
2022/04/16 07:41:52;;;;;;;9.40;4.72;;;;;;;15.55;42.83;94970.53;5088346;28;20044;-44
2022/04/16 07:44:19;;;;;;;10.27;5.22;;;;;;;15.57;43.57;94972.88;5087593;28;20498;-44
2022/04/16 07:46:46;;;;;;;14.57;6.55;;;;;;;15.47;43.94;94968.41;5087945;28;20059;-44
2022/04/16 07:49:12;;;;;;;12.15;5.43;;;;;;;15.36;44.07;94967.59;5086770;28;20067;-46
2022/04/16 07:51:39;;;;;;;8.23;5.28;;;;;;;15.41;43.16;94970.22;5089332;28;20050;-48
2022/04/16 07:54:06;;;;;;;8.65;4.72;;;;;;;15.35;44.13;94966.00;5090121;28;20039;-47
2022/04/16 07:56:33;;;;;;;9.05;5.18;;;;;;;15.35;44.24;94955.50;5090725;28;20054;-45
2022/04/16 07:59:00;;;;;;;7.50;4.97;;;;;;;15.33;44.05;94956.81;5089087;28;20050;-46
2022/04/16 08:01:27;;;;;;;11.98;4.65;;;;;;;15.37;43.86;94957.88;5089765;28;20735;-49
2022/04/16 08:03:54;;;;;;;11.02;5.50;;;;;;;15.44;43.51;94958.41;5088163;28;20609;-45
2022/04/16 08:06:21;;;;;;;10.88;5.93;;;;;;;15.39;43.69;94953.94;5085386;28;20039;-44
2022/04/16 08:08:48;;;;;;;13.52;5.18;;;;;;;15.40;44.05;94958.16;5088970;28;20067;-47
2022/04/16 08:11:15;;;;;;;12.35;5.68;;;;;;;15.50;43.37;94957.38;5087814;28;20883;-44
2022/04/16 08:13:42;;;;;;;12.48;5.53;;;;;;;15.72;43.65;94954.56;5085963;28;20035;-44
2022/04/16 08:16:08;;;;;;;13.68;4.63;;;;;;;16.08;41.90;94957.25;5088817;28;20036;-48
2022/04/16 08:18:36;;;;;;;12.15;6.22;;;;;;;16.12;41.34;94950.44;5089308;28;20081;-47
2022/04/16 08:21:04;;;;;;;11.50;4.90;;;;;;;16.22;41.55;94941.75;5090600;28;20052;-44
2022/04/16 08:23:33;;;;;;;12.55;5.28;;;;;;;16.47;41.24;94943.56;5086923;28;20052;-45
2022/04/16 08:26:00;;;;;;;16.85;5.55;;;;;;;16.56;39.89;94936.72;5088252;28;20036;-45
2022/04/16 08:28:26;;;;;;;18.70;5.88;;;;;;;16.76;39.80;94940.38;5086677;28;20137;-45
2022/04/16 08:30:54;;;;;;;19.30;4.82;;;;;;;16.79;40.80;94945.88;5087995;28;20047;-47
2022/04/16 08:33:22;;;;;;;11.10;5.78;;;;;;;16.86;40.08;94934.34;5084664;28;20060;-45
2022/04/16 08:35:49;;;;;;;12.73;5.03;;;;;;;16.96;39.52;94935.09;5085746;28;20040;-44
2022/04/16 08:38:16;;;;;;;15.05;5.07;;;;;;;17.23;40.01;94927.88;5087346;28;20079;-46
2022/04/16 08:40:43;;;;;;;10.80;4.88;;;;;;;17.56;39.33;94926.41;5089109;28;20582;-43
2022/04/16 08:43:13;;;;;;;9.23;4.75;;;;;;;17.91;38.27;94927.25;5085918;28;20421;-44
2022/04/16 08:45:41;;;;;;;15.07;5.10;;;;;;;17.98;37.69;94925.09;5087528;28;20421;-45
2022/04/16 08:48:08;;;;;;;9.18;5.22;;;;;;;17.88;37.64;94927.81;5087680;28;20048;-48
2022/04/16 08:50:36;;;;;;;11.23;5.20;;;;;;;18.22;37.50;94921.75;5088676;28;20118;-44
2022/04/16 08:53:03;;;;;;;12.15;5.32;;;;;;;18.30;36.89;94923.81;5089847;28;20081;-47
2022/04/16 08:55:30;;;;;;;8.43;4.35;;;;;;;17.70;36.80;94914.22;5088429;28;20052;-49
2022/04/16 08:57:57;;;;;;;9.68;5.65;;;;;;;17.64;37.08;94912.66;5090978;28;20044;-47
2022/04/16 09:00:24;;;;;;;10.55;4.32;;;;;;;18.04;36.64;94908.22;5088630;28;20063;-45
2022/04/16 09:02:56;;;;;;;8.10;4.15;;;;;;;18.60;36.60;94906.91;5088917;28;20046;-45
2022/04/16 09:05:26;;;;;;;9.13;4.88;;;;;;;18.96;35.06;94897.84;5087799;28;20535;-42
2022/04/16 09:07:58;;;;;;;7.10;4.05;;;;;;;19.18;34.74;94900.75;5090875;28;20421;-43
2022/04/16 09:10:26;;;;;;;9.35;5.30;;;;;;;19.49;34.79;94903.00;5088319;28;20055;-42
2022/04/16 09:12:55;;;;;;;10.10;4.93;;;;;;;19.64;34.26;94902.78;5086819;28;20399;-46
2022/04/16 09:15:23;;;;;;;11.88;5.18;;;;;;;19.80;33.61;94899.94;5088238;28;20779;-44
2022/04/16 09:18:03;;;;;;;11.57;4.93;;;;;;;19.56;33.49;94895.50;5084738;28;20055;-44
2022/04/16 09:20:36;;;;;;;10.05;5.05;;;;;;;19.83;33.99;94891.44;5068160;28;20060;-44
2022/04/16 09:23:15;;;;;;;12.57;5.30;;;;;;;20.21;32.86;94883.44;5088079;28;20047;-43
2022/04/16 09:25:44;;;;;;;6.15;4.00;;;;;;;19.99;33.04;94892.78;5087838;28;20449;-44
2022/04/16 09:28:14;;;;;;;10.20;5.03;;;;;;;19.38;34.69;94893.63;5088481;28;20044;-47
2022/04/16 09:30:52;;;;;;;8.18;4.93;;;;;;;19.22;34.88;94885.13;5088965;28;20063;-42
2022/04/16 09:33:20;;;;;;;9.80;5.30;;;;;;;19.77;34.83;94884.66;5086523;28;20036;-45
2022/04/16 09:35:47;;;;;;;8.40;4.55;;;;;;;20.27;34.15;94876.97;5086098;28;20052;-49
2022/04/16 09:38:14;;;;;;;12.48;4.35;;;;;;;20.76;32.99;94878.25;5067442;28;20131;-47
2022/04/16 09:40:46;;;;;;;7.57;3.88;;;;;;;20.97;31.17;94873.34;5088478;28;20140;-45
2022/04/16 09:43:13;;;;;;;9.45;4.53;;;;;;;20.83;30.31;94866.47;5086540;28;20528;-45
2022/04/16 09:45:41;;;;;;;7.55;4.10;;;;;;;20.72;30.46;94866.66;5089040;28;20494;-43
2022/04/16 09:48:12;;;;;;;10.57;4.43;;;;;;;20.67;30.05;94872.09;5085491;28;20048;-42
2022/04/16 09:50:41;;;;;;;7.00;4.10;;;;;;;20.91;30.51;94868.44;5089375;28;20059;-44
2022/04/16 09:53:10;;;;;;;11.65;4.65;;;;;;;21.35;30.58;94864.34;5086541;28;20416;-43
2022/04/16 09:55:38;;;;;;;6.90;3.80;;;;;;;21.79;29.86;94870.84;5087711;28;20158;-45
2022/04/16 09:58:06;;;;;;;11.27;4.20;;;;;;;22.17;28.17;94869.69;5086610;28;20047;-44
2022/04/16 10:00:36;;;;;;;11.20;5.78;;;;;;;22.50;28.51;94872.84;5086763;28;20444;-47
2022/04/16 10:03:23;;;;;;;8.27;4.85;;;;;;;21.57;28.88;94861.78;5084742;28;20044;-45
2022/04/16 10:05:50;;;;;;;8.25;4.20;;;;;;;21.25;29.35;94867.22;5085831;28;20048;-44
2022/04/16 10:08:17;;;;;;;9.10;4.00;;;;;;;21.61;29.05;94861.97;5084164;28;20044;-43
2022/04/16 10:10:52;;;;;;;8.25;4.68;;;;;;;21.83;29.00;94855.88;5088054;28;20067;-46
2022/04/16 10:13:20;;;;;;;7.57;3.90;;;;;;;22.00;28.76;94862.38;5084908;28;20059;-43
2022/04/16 10:16:09;;;;;;;10.27;4.07;;;;;;;22.26;28.38;94852.75;5086988;28;20425;-46
2022/04/16 10:18:36;;;;;;;9.93;4.25;;;;;;;22.10;28.41;94854.19;5088659;28;20051;-44
2022/04/16 10:21:04;;;;;;;5.38;3.72;;;;;;;22.50;27.73;94851.63;5090205;28;20056;-45
2022/04/16 10:23:37;;;;;;;6.78;3.08;;;;;;;22.99;27.28;94847.09;5090007;28;20042;-49
2022/04/16 10:26:06;;;;;;;8.05;4.00;;;;;;;23.02;26.46;94846.47;5089790;28;20044;-50
2022/04/16 10:28:40;;;;;;;6.60;3.80;;;;;;;22.81;26.81;94842.81;5089260;28;20055;-46
2022/04/16 10:31:21;;;;;;;7.07;4.07;;;;;;;23.19;27.59;94837.00;5089922;28;20105;-43
2022/04/16 10:33:56;;;;;;;5.25;3.83;;;;;;;23.74;26.63;94839.06;5087341;28;20383;-45
2022/04/16 10:36:36;;;;;;;7.03;4.07;;;;;;;23.78;26.32;94834.66;5087476;28;20059;-44
2022/04/16 10:39:17;;;;;;;6.20;3.65;;;;;;;24.08;26.14;94832.16;5090536;28;20131;-45
2022/04/16 10:41:55;;;;;;;11.05;4.15;;;;;;;23.41;25.84;94836.88;5089004;28;20044;-48
2022/04/16 10:44:24;;;;;;;9.00;3.75;;;;;;;23.32;26.06;94828.13;5090548;28;20039;-46
2022/04/16 10:46:52;;;;;;;8.00;4.13;;;;;;;23.38;26.03;94826.84;5086832;28;20087;-49
2022/04/16 10:49:22;;;;;;;5.20;3.90;;;;;;;23.64;26.05;94823.41;5090085;28;20051;-48
2022/04/16 10:51:50;;;;;;;7.38;4.47;;;;;;;23.99;26.44;94824.19;5090175;28;20047;-45
2022/04/16 10:54:34;;;;;;;7.32;3.78;;;;;;;23.60;25.72;94822.47;5089775;28;20052;-43
2022/04/16 10:57:03;;;;;;;6.03;3.95;;;;;;;23.05;26.42;94819.34;5091821;28;20497;-46
2022/04/16 10:59:40;;;;;;;4.68;3.35;;;;;;;23.20;26.19;94819.97;5089709;28;20055;-46
2022/04/16 11:02:27;;;;;;;5.53;3.83;;;;;;;23.27;26.16;94820.28;5090041;28;20040;-45
2022/04/16 11:04:59;;;;;;;9.45;3.88;;;;;;;23.26;26.32;94810.75;5091723;28;20062;-46
2022/04/16 11:07:30;;;;;;;8.95;3.47;;;;;;;23.51;26.83;94808.41;5091245;28;20045;-48
2022/04/16 11:09:57;;;;;;;8.05;4.57;;;;;;;23.83;26.76;94813.25;5087865;28;20112;-45
2022/04/16 11:12:25;;;;;;;14.85;3.63;;;;;;;24.11;26.18;94804.13;5089700;28;20048;-46
2022/04/16 11:14:53;;;;;;;13.43;3.45;;;;;;;24.68;26.23;94805.66;5088175;28;20437;-47
2022/04/16 11:17:20;;;;;;;7.43;4.70;;;;;;;25.36;25.52;94809.03;5090156;28;20043;-46
2022/04/16 11:20:05;;;;;;;6.47;3.97;;;;;;;25.62;24.91;94810.69;5090143;28;20047;-44
2022/04/16 11:22:33;;;;;;;4.32;3.47;;;;;;;25.84;23.34;94806.09;5090206;28;20113;-46
2022/04/16 11:25:04;;;;;;;7.18;4.30;;;;;;;25.73;23.42;94795.88;5090985;28;20036;-44
2022/04/16 11:36:11;;;;;;;8.57;4.38;;;;;;;24.99;23.99;94787.47;5088152;28;20089;-49
2022/04/16 11:38:40;;;;;;;6.32;3.75;;;;;;;24.75;24.31;94782.75;5091347;28;20079;-50
2022/04/16 11:41:11;;;;;;;8.55;3.40;;;;;;;24.99;24.56;94778.69;5090476;28;20043;-47
2022/04/16 11:43:51;;;;;;;5.45;3.83;;;;;;;25.49;23.84;94782.44;5089750;28;20043;-45
2022/04/16 11:46:18;;;;;;;5.50;3.47;;;;;;;25.92;23.98;94781.25;5091467;28;20058;-45
2022/04/16 11:48:46;;;;;;;5.18;2.45;;;;;;;26.36;23.24;94778.88;5090571;28;20036;-47
2022/04/16 11:51:14;;;;;;;2.55;1.50;;;;;;;26.13;23.28;94779.31;5085634;28;20108;-50
2022/04/16 11:53:44;;;;;;;4.13;2.38;;;;;;;26.13;23.82;94771.31;5085808;28;20051;-51
2022/04/16 11:56:11;;;;;;;4.13;2.17;;;;;;;25.89;24.22;94765.88;5088672;28;20044;-45
2022/04/16 11:58:38;;;;;;;3.80;2.40;;;;;;;26.22;22.84;94762.44;5085859;28;20044;-47
2022/04/16 12:01:08;;;;;;;7.20;2.25;;;;;;;25.99;23.38;94765.50;5088547;28;20048;-44
2022/04/16 12:03:39;;;;;;;2.55;1.90;;;;;;;25.37;24.21;94751.94;5088400;28;20044;-47
2022/04/16 12:06:13;;;;;;;4.20;2.20;;;;;;;25.34;24.67;94762.50;5087141;28;20040;-47